Flight Track Log - Related Links

Times and Time Zones

All times are in EST time to prevent confusion due to time zone crossing. See the EJA848 flight status page for this flight to view local times or setup timezone preferences in your user account.

Time Position Orientation Groundspeed Altitude Reporting Facility
EST Latitude Longitude Course Direction KTS MPH feet Rate Location/Type
Sat 12:31:48 PM 33.1333 -117.3000 270° West 199 229 1,000  Level Southern California TRACON
Sat 12:32:48 PM 33.1333 -117.3667 270° West 220 253 3,800 2,161 Climbing Southern California TRACON
Sat 12:35:19 PM 33.1850 -117.2525 62° Northeast 280 322 8,600 2,292 Climbing Los Angeles Center
Sat 12:36:20 PM 33.1786 -117.1489 94° East 301 346 11,900 3,854 Climbing Los Angeles Center
Sat 12:37:22 PM 33.1717 -117.0333 94° East 340 391 16,500 3,805 Climbing Los Angeles Center
Sat 12:38:23 PM 33.1619 -116.9136 96° East 358 412 19,700 3,415 Climbing Los Angeles Center
Sat 12:39:25 PM 33.1061 -116.7753 116° Southeast 382 440 23,500 2,585 Climbing Los Angeles Center
Sat 12:40:26 PM 33.0575 -116.6519 115° Southeast 404 465 25,000 732 Climbing Los Angeles Center
Sat 12:41:28 PM 33.0031 -116.5225 117° Southeast 458 527 25,000  Level Los Angeles Center
Sat 12:42:29 PM 32.9800 -116.3711 100° East 465 535 25,000 -49 Level Los Angeles Center
Sat 12:43:31 PM 32.9681 -116.1967 95° East 469 540 24,900  Descending Los Angeles Center
Sat 12:44:32 PM 32.9556 -116.0442 96° East 463 533 25,000  Climbing Los Angeles Center
Sat 12:45:34 PM 32.9436 -115.8950 95° East 455 524 24,900  Descending Los Angeles Center
Sat 12:46:35 PM 32.9322 -115.7594 96° East 410 472 25,000 49 Climbing Los Angeles Center
Sat 12:47:37 PM 32.9225 -115.6364 95° East 379 436 25,000  Level Los Angeles Center
Sat 12:48:38 PM 32.9122 -115.5153 96° East 371 427 25,000  Level Los Angeles Center
Sat 12:49:40 PM 32.9025 -115.3908 95° East 378 435 25,000  Level Los Angeles Center
Sat 12:50:41 PM 32.8878 -115.2417 97° East 379 436 25,000  Level Los Angeles Center
Sat 12:51:43 PM 32.8775 -115.1156 96° East 383 441 25,000  Level Los Angeles Center
Sat 12:52:44 PM 32.8672 -114.9903 96° East 382 440 25,000  Level Los Angeles Center
Sat 12:53:45 PM 32.8589 -114.8642 94° East 383 441 25,000  Level Los Angeles Center
Sat 12:54:47 PM 32.8469 -114.7344 96° East 391 450 25,000  Level Los Angeles Center
Sat 12:55:48 PM 32.8350 -114.6006 96° East 404 465 25,000  Level Los Angeles Center
Sat 12:56:49 PM 32.8203 -114.4586 97° East 427 491 25,000  Level Los Angeles Center
Sat 12:57:51 PM 32.8089 -114.3147 95° East 436 502 25,000  Level Los Angeles Center
Sat 12:58:52 PM 32.7928 -114.1681 97° East 445 512 25,000  Level Los Angeles Center
Sat 12:59:53 PM 32.7772 -113.9892 96° East 455 524 25,000  Level Los Angeles Center
Sat 01:00:55 PM 32.7950 -113.8364 82° East 472 543 25,000  Level Los Angeles Center
Sat 01:01:56 PM 32.8331 -113.6861 73° East 478 550 25,000 -696 Level Los Angeles Center
Sat 01:02:47 PM 32.8964 -113.5825 54° Northeast 490 564 23,700 -1,752 Descending Albuquerque Center
Sat 01:03:49 PM 32.9706 -113.4511 56° Northeast 477 549 21,700 -1,597 Descending Albuquerque Center
Sat 01:04:51 PM 33.0294 -113.3336 59° Northeast 425 489 20,400 -1,122 Descending Albuquerque Center
Sat 01:05:52 PM 33.0828 -113.2239 60° Northeast 393 452 19,400 -1,024 Descending Albuquerque Center
Sat 01:06:54 PM 33.1478 -113.0922 59° Northeast 385 443 18,300 -919 Descending Albuquerque Center
Sat 01:07:56 PM 33.1994 -112.9858 60° Northeast 374 430 17,500 -871 Descending Albuquerque Center
Sat 01:08:58 PM 33.2528 -112.8769 60° Northeast 377 434 16,500 -726 Descending Albuquerque Center
Sat 01:10:00 PM 33.2806 -112.7647 73° East 357 411 16,000 -585 Descending Albuquerque Center
Sat 01:11:01 PM 33.2839 -112.6522 88° East 340 391 15,300 -1,220 Descending Albuquerque Center
Sat 01:12:03 PM 33.2878 -112.5222 88° East 344 396 13,500 -1,645 Descending Albuquerque Center
Sat 01:13:05 PM 33.2900 -112.4122 89° East 335 386 11,900 -1,355 Descending Albuquerque Center
Sat 01:14:07 PM 33.2942 -112.3097 87° East 316 364 10,700 -927 Descending Albuquerque Center
Sat 01:15:08 PM 33.3017 -112.2208 84° East 277 319 10,000 -683 Descending Albuquerque Center
Sat 01:16:10 PM 33.3081 -112.1308 85° East 273 314 9,300 -823 Descending Albuquerque Center
Sat 01:17:12 PM 33.3239 -112.0436 78° East 272 313 8,300 -1,065 Descending Albuquerque Center
Sat 01:18:14 PM 33.3464 -111.9439 75° East 259 298 7,100 -581 Descending Albuquerque Center
Sat 01:19:16 PM 33.3444 -111.8625 92° East 247 284 7,100 -488 Level Albuquerque Center
Sat 01:20:17 PM 33.3528 -111.7964 81° East 219 252 6,100 -488 Descending Albuquerque Center
Sat 01:21:19 PM 33.4053 -111.7850 10° North 195 224 6,100 -290 Level Albuquerque Center
Sat 01:22:21 PM 33.4289 -111.8381 298° West 180 207 5,500 -1,122 Descending Albuquerque Center
Sat 01:23:22 PM 33.4289 -111.8869 270° West 149 171 3,800 -1,512 Descending Albuquerque Center
Sat 01:24:24 PM 33.4286 -111.9356 270° West 146 168 2,400 -1,210 Descending Albuquerque Center
Sat 01:25:26 PM 33.4286 -111.9950 270° West 144 166 1,300 -629 Descending Albuquerque Center
Sat 01:26:28 PM 33.4286 -112.0306 270° West 140 161 1,100 -194 Descending Albuquerque Center

Login

Don't have an account? Register now (free) for customized features, flight alerts, and more!